Ocoee 3 Observed Data For Previous 48 Hours

Caption
Day and Hour Reservoir Elevation (behind dam)* Tailwater Elevation (below dam)* Average Hourly Discharge*
4/22/2018 2 AM EDT 1,432.63 1,119.34 1,370
4/22/2018 3 AM EDT 1,432.47 1,119.33 1,368
4/22/2018 4 AM EDT 1,432.38 1,118.61 1,141
4/22/2018 5 AM EDT 1,432.33 1,118.56 1,043
4/22/2018 6 AM EDT 1,432.26 1,118.63 1,045
4/22/2018 7 AM EDT 1,432.19 1,118.66 1,041
4/22/2018 8 AM EDT 1,432.11 1,119.31 1,065
4/22/2018 9 AM EDT 1,431.96 1,119.16 1,298
4/22/2018 10 AM EDT 1,431.82 1,119.10 1,222
4/22/2018 11 AM EDT 1,431.67 1,119.21 1,224
4/22/2018 12 PM EDT 1,431.52 1,119.19 1,226
4/22/2018 1 PM EDT 1,431.37 1,119.15 1,223
4/22/2018 2 PM EDT 1,431.22 1,119.26 1,223
4/22/2018 3 PM EDT 1,431.06 1,119.22 1,222
4/22/2018 4 PM EDT 1,430.90 1,119.15 1,223
4/22/2018 5 PM EDT 1,430.74 1,119.23 1,220
4/22/2018 6 PM EDT 1,430.61 1,118.53 1,052
4/22/2018 7 PM EDT 1,430.50 1,118.54 1,048
4/22/2018 8 PM EDT 1,430.39 1,118.65 1,054
4/22/2018 9 PM EDT 1,430.28 1,118.62 1,051
4/22/2018 10 PM EDT 1,430.17 1,118.56 1,054
4/22/2018 11 PM EDT 1,430.05 1,118.59 1,050
4/23/2018 12 AM EDT 1,429.93 1,118.58 1,054
4/23/2018 1 AM EDT 1,429.80 1,118.54 1,054
4/23/2018 2 AM EDT 1,429.69 1,118.67 1,055
4/23/2018 3 AM EDT 1,429.58 1,118.62 1,057
4/23/2018 4 AM EDT 1,429.49 1,118.72 1,057
4/23/2018 5 AM EDT 1,429.41 1,118.53 1,055
4/23/2018 6 AM EDT 1,429.35 1,118.71 1,058
4/23/2018 7 AM EDT 1,429.33 1,118.70 1,056
4/23/2018 8 AM EDT 1,429.71 1,114.10 13
4/23/2018 9 AM EDT 1,430.15 1,114.25 0
4/23/2018 10 AM EDT 1,430.42 1,120.04 735
4/23/2018 11 AM EDT 1,430.42 1,120.04 1,418
4/23/2018 12 PM EDT 1,430.47 1,120.24 1,417
4/23/2018 1 PM EDT 1,430.55 1,120.33 1,418
4/23/2018 2 PM EDT 1,430.64 1,120.48 1,421
4/23/2018 3 PM EDT 1,430.73 1,120.55 1,425
4/23/2018 4 PM EDT 1,430.81 1,120.45 1,424
4/23/2018 5 PM EDT 1,430.86 1,120.17 1,424
4/23/2018 6 PM EDT 1,430.90 1,120.34 1,425
4/23/2018 7 PM EDT 1,430.91 1,120.22 1,424
4/23/2018 8 PM EDT 1,430.91 1,120.08 1,423
4/23/2018 9 PM EDT 1,430.88 1,120.12 1,424
4/23/2018 10 PM EDT 1,430.84 1,120.24 1,419
4/23/2018 11 PM EDT 1,430.78 1,120.26 1,423
4/24/2018 12 AM EDT 1,430.73 1,120.06 1,422
4/24/2018 1 AM EDT 1,430.67 1,120.24 1,424
4/24/2018 2 AM EDT 1,430.61 1,120.17 1,416
4/24/2018 3 AM EDT 1,430.61 1,120.36 1,414
4/24/2018 4 AM EDT 1,430.67 1,120.65 1,412
4/24/2018 5 AM EDT 1,430.82 1,121.53 1,413
4/24/2018 6 AM EDT 1,431.12 1,122.78 1,426
4/24/2018 7 AM EDT 1,431.55 1,122.93 1,430
4/24/2018 8 AM EDT 1,432.06 1,122.72 1,429
4/24/2018 9 AM EDT 1,432.61 1,122.91 1,435
4/24/2018 10 AM EDT 1,433.20 1,122.61 1,434
4/24/2018 11 AM EDT 1,433.79 1,121.73 1,427
4/24/2018 12 PM EDT 1,434.26 1,121.79 2,092
4/24/2018 1 PM EDT 1,434.60 1,122.19 2,356
4/24/2018 2 PM EDT 1,434.67 1,123.66 3,724
4/24/2018 3 PM EDT 1,434.63 1,124.57 4,067
4/24/2018 4 PM EDT 1,434.54 1,124.36 4,073
4/24/2018 5 PM EDT 1,434.39 1,124.38 4,071
4/24/2018 6 PM EDT 1,434.20 1,124.23 4,069
4/24/2018 7 PM EDT 1,434.03 1,124.30 3,435
4/24/2018 8 PM EDT 1,434.01 1,123.00 2,590
4/24/2018 9 PM EDT 1,433.94 1,122.82 2,592
4/24/2018 10 PM EDT 1,433.87 1,122.62 2,571

Elevations are in feet above sea level. Discharges are in cubic feet per second and are reported at the end of the hour.